createdAt,value
2022-12-04T00:00:09.775Z,83.43
2022-12-04T00:02:57.654Z,70.00
2022-12-04T00:05:43.710Z,76.37
2022-12-04T00:08:29.849Z,86.80
2022-12-04T00:11:18.715Z,86.70
2022-12-04T00:14:07.477Z,82.70
2022-12-04T00:16:54.133Z,81.00
2022-12-04T00:19:42.145Z,83.83
2022-12-04T00:22:28.576Z,79.10
2022-12-04T00:25:15.009Z,84.93
2022-12-04T00:28:01.312Z,78.17
2022-12-04T00:30:47.864Z,74.77
2022-12-04T00:33:34.263Z,83.13
2022-12-04T00:36:24.811Z,74.77
2022-12-04T00:39:11.230Z,84.00
2022-12-04T00:41:57.595Z,78.13
2022-12-04T00:44:43.828Z,86.10
2022-12-04T00:47:30.392Z,81.20
2022-12-04T00:50:16.566Z,86.23
2022-12-04T00:53:05.200Z,84.70
2022-12-04T00:55:51.782Z,70.60
2022-12-04T00:58:38.677Z,75.70
2022-12-04T01:01:25.835Z,79.87
2022-12-04T01:04:12.282Z,83.77
2022-12-04T01:07:04.742Z,73.20
2022-12-04T01:09:53.065Z,81.73
2022-12-04T01:12:39.354Z,84.47
2022-12-04T01:15:26.009Z,68.40
2022-12-04T01:18:12.939Z,82.23
2022-12-04T01:20:59.682Z,75.33
2022-12-04T01:23:46.297Z,75.63
2022-12-04T01:26:34.094Z,82.93
2022-12-04T01:29:20.163Z,76.87
2022-12-04T01:32:07.128Z,78.83
2022-12-04T01:34:53.476Z,82.73
2022-12-04T01:37:40.036Z,82.00
2022-12-04T01:40:26.084Z,80.43
2022-12-04T01:43:14.540Z,82.33
2022-12-04T01:46:01.838Z,83.67
2022-12-04T01:48:53.284Z,91.67
2022-12-04T01:51:42.215Z,80.77
2022-12-04T01:54:31.452Z,83.40
2022-12-04T01:57:20.278Z,76.00
2022-12-04T02:00:11.299Z,85.20
2022-12-04T02:02:57.922Z,82.37
2022-12-04T02:05:44.366Z,81.87
2022-12-04T02:08:31.529Z,84.13
2022-12-04T02:11:28.073Z,77.30
2022-12-04T02:14:23.847Z,85.40
2022-12-04T02:17:21.327Z,78.97
2022-12-04T02:20:23.553Z,74.97
2022-12-04T02:23:39.017Z,73.63
2022-12-04T02:26:37.771Z,83.60
2022-12-04T02:29:35.278Z,77.57
2022-12-04T02:32:25.990Z,84.60
2022-12-04T02:35:17.560Z,64.40
2022-12-04T02:38:09.983Z,87.80
2022-12-04T02:41:00.526Z,85.20
2022-12-04T02:43:49.896Z,77.10
2022-12-04T02:46:40.482Z,88.20
2022-12-04T02:49:33.143Z,77.77
2022-12-04T02:52:23.804Z,78.70
2022-12-04T02:55:14.810Z,82.97
2022-12-04T02:58:07.121Z,75.57
2022-12-04T03:00:55.316Z,86.70
2022-12-04T03:03:43.168Z,89.43
2022-12-04T03:06:32.833Z,88.87
2022-12-04T03:09:22.967Z,83.07
2022-12-04T03:12:14.347Z,77.67
2022-12-04T03:15:04.322Z,82.50
2022-12-04T03:17:55.716Z,86.67
2022-12-04T03:20:45.419Z,78.60
2022-12-04T03:23:36.170Z,74.93
2022-12-04T03:26:28.275Z,91.47
2022-12-04T03:29:20.444Z,81.53
2022-12-04T03:32:12.345Z,86.13
2022-12-04T03:35:03.633Z,79.63
2022-12-04T03:37:58.171Z,83.50
2022-12-04T03:40:50.671Z,76.00
2022-12-04T03:43:40.899Z,75.60
2022-12-04T03:46:32.325Z,89.13
2022-12-04T03:49:23.835Z,82.10
2022-12-04T03:52:15.171Z,84.07
2022-12-04T03:55:08.289Z,81.87
2022-12-04T03:57:59.700Z,86.47
2022-12-04T04:00:50.904Z,90.77
2022-12-04T04:03:41.980Z,87.37
2022-12-04T04:06:33.601Z,90.63
2022-12-04T04:09:25.148Z,73.93
2022-12-04T04:12:17.815Z,89.63
2022-12-04T04:15:27.134Z,82.13
2022-12-04T04:18:45.131Z,94.00
2022-12-04T04:21:54.535Z,83.37
2022-12-04T04:24:46.219Z,83.27
2022-12-04T04:27:34.351Z,92.13
2022-12-04T04:30:21.432Z,97.53
2022-12-04T04:33:14.447Z,94.90
2022-12-04T04:36:08.938Z,90.43
2022-12-04T04:39:02.156Z,94.70
2022-12-04T04:41:53.476Z,96.93
2022-12-04T04:44:48.510Z,84.97
2022-12-04T04:47:48.701Z,86.70
2022-12-04T04:50:36.256Z,96.03
2022-12-04T04:53:28.397Z,92.10
2022-12-04T04:56:15.896Z,93.07
2022-12-04T04:59:02.335Z,96.93
2022-12-04T05:01:50.285Z,97.40
2022-12-04T05:04:36.467Z,102.63
2022-12-04T05:07:22.797Z,93.63
2022-12-04T05:10:11.291Z,92.63
2022-12-04T05:12:57.855Z,100.77
2022-12-04T05:15:44.448Z,101.87
2022-12-04T05:18:32.828Z,88.70
2022-12-04T05:21:19.196Z,95.20
2022-12-04T05:24:05.678Z,99.23
2022-12-04T05:26:52.208Z,91.73
2022-12-04T05:29:38.631Z,101.93
2022-12-04T05:32:27.151Z,96.10
2022-12-04T05:35:14.987Z,99.53
2022-12-04T05:38:01.039Z,100.40
2022-12-04T05:40:47.414Z,101.07
2022-12-04T05:43:34.538Z,97.90
2022-12-04T05:46:20.714Z,100.27
2022-12-04T05:49:06.860Z,113.97
2022-12-04T05:51:55.840Z,95.83
2022-12-04T05:54:42.437Z,94.37
2022-12-04T05:57:30.101Z,101.33
2022-12-04T06:00:18.063Z,95.27
2022-12-04T06:03:05.030Z,103.47
2022-12-04T06:05:51.448Z,106.27
2022-12-04T06:08:39.023Z,102.23
2022-12-04T06:11:29.047Z,106.13
2022-12-04T06:14:16.979Z,93.93
2022-12-04T06:17:03.341Z,115.93
2022-12-04T06:19:49.801Z,111.20
2022-12-04T06:22:36.300Z,101.90
2022-12-04T06:25:23.974Z,101.47
2022-12-04T06:28:10.507Z,102.37
2022-12-04T06:30:56.888Z,98.60
2022-12-04T06:33:43.731Z,108.00
2022-12-04T06:36:30.455Z,101.00
2022-12-04T06:39:18.842Z,110.00
2022-12-04T06:42:07.074Z,106.23
2022-12-04T06:44:53.290Z,105.70
2022-12-04T06:47:39.636Z,103.47
2022-12-04T06:50:26.244Z,106.00
2022-12-04T06:53:12.421Z,99.10
2022-12-04T06:55:59.380Z,105.10
2022-12-04T06:58:48.179Z,116.03
2022-12-04T07:01:35.770Z,111.63
2022-12-04T07:04:23.227Z,113.90
2022-12-04T07:07:10.136Z,111.77
2022-12-04T07:09:56.515Z,98.87
2022-12-04T07:12:43.137Z,120.17
2022-12-04T07:15:30.951Z,116.87
2022-12-04T07:18:17.140Z,106.00
2022-12-04T07:21:06.835Z,103.90
2022-12-04T07:23:54.973Z,112.53
2022-12-04T07:26:41.315Z,109.00
2022-12-04T07:29:27.488Z,108.43
2022-12-04T07:32:15.402Z,108.33
2022-12-04T07:35:02.193Z,111.00
2022-12-04T07:37:48.691Z,106.53
2022-12-04T07:40:35.371Z,124.70
2022-12-04T07:43:21.808Z,118.10
2022-12-04T07:46:11.643Z,121.23
2022-12-04T07:49:00.340Z,133.43
2022-12-04T07:51:46.511Z,107.90
2022-12-04T07:54:33.263Z,113.27
2022-12-04T07:57:19.559Z,120.80
2022-12-04T08:00:06.882Z,119.60
2022-12-04T08:02:53.284Z,126.90
2022-12-04T08:05:40.832Z,115.03
2022-12-04T08:08:27.159Z,120.30
2022-12-04T08:11:15.403Z,117.30
2022-12-04T08:14:05.123Z,110.53
2022-12-04T08:16:53.035Z,128.20
2022-12-04T08:19:39.556Z,108.50
2022-12-04T08:22:27.231Z,111.57
2022-12-04T08:25:13.727Z,112.10
2022-12-04T08:28:00.022Z,115.40
2022-12-04T08:30:46.436Z,122.60
2022-12-04T08:33:32.728Z,122.30
2022-12-04T08:36:21.701Z,109.70
2022-12-04T08:39:09.391Z,118.57
2022-12-04T08:41:57.325Z,110.43
2022-12-04T08:44:44.069Z,133.60
2022-12-04T08:47:30.542Z,131.17
2022-12-04T08:50:16.951Z,114.40
2022-12-04T08:53:03.501Z,111.07
2022-12-04T08:55:51.203Z,115.03
2022-12-04T08:58:38.036Z,121.47
2022-12-04T09:01:25.427Z,108.93
2022-12-04T09:04:11.994Z,118.57
2022-12-04T09:06:57.987Z,118.10
2022-12-04T09:09:48.267Z,103.90
2022-12-04T09:12:36.326Z,116.47
2022-12-04T09:15:22.787Z,115.73
2022-12-04T09:18:09.750Z,110.77
2022-12-04T09:20:59.835Z,120.43
2022-12-04T09:23:47.201Z,112.57
2022-12-04T09:26:34.274Z,113.87
2022-12-04T09:29:22.286Z,107.83
2022-12-04T09:32:08.409Z,112.27
2022-12-04T09:34:54.597Z,95.07
2022-12-04T09:37:41.243Z,107.03
2022-12-04T09:40:36.919Z,122.37
2022-12-04T09:43:32.119Z,104.40
2022-12-04T09:46:24.094Z,117.23
2022-12-04T09:49:16.479Z,120.30
2022-12-04T09:52:08.292Z,110.70
2022-12-04T09:54:56.484Z,116.10
2022-12-04T09:57:46.075Z,125.67
2022-12-04T10:00:35.690Z,116.90
2022-12-04T10:03:27.725Z,106.80
2022-12-04T10:06:20.481Z,120.37
2022-12-04T10:09:13.769Z,104.70
2022-12-04T10:12:13.447Z,114.23
2022-12-04T10:15:09.759Z,128.47
2022-12-04T10:18:07.149Z,125.73
2022-12-04T10:21:09.648Z,119.73
2022-12-04T10:24:12.568Z,120.83
2022-12-04T10:27:01.287Z,109.13
2022-12-04T10:29:51.943Z,118.07
2022-12-04T10:32:38.925Z,114.40
2022-12-04T10:35:29.397Z,115.00
2022-12-04T10:38:29.750Z,120.17
2022-12-04T10:41:22.691Z,126.80
2022-12-04T10:44:14.013Z,125.07
2022-12-04T10:47:02.566Z,115.27
2022-12-04T10:49:49.712Z,122.03
2022-12-04T10:52:36.520Z,115.30
2022-12-04T10:55:33.248Z,130.33
2022-12-04T10:58:21.002Z,119.27
2022-12-04T11:01:09.310Z,126.73
2022-12-04T11:04:00.135Z,119.63
2022-12-04T11:06:46.611Z,118.20
2022-12-04T11:09:33.895Z,114.10
2022-12-04T11:12:23.727Z,122.87
2022-12-04T11:15:15.890Z,114.63
2022-12-04T11:18:10.004Z,117.60
2022-12-04T11:20:59.252Z,128.47
2022-12-04T11:23:48.019Z,118.33
2022-12-04T11:26:38.155Z,114.87
2022-12-04T11:29:31.506Z,121.13
2022-12-04T11:32:23.463Z,98.27
2022-12-04T11:35:17.349Z,122.13
2022-12-04T11:38:08.409Z,128.60
2022-12-04T11:40:57.987Z,119.13
2022-12-04T11:43:53.019Z,119.40
2022-12-04T11:46:55.218Z,121.03
2022-12-04T11:49:44.047Z,118.37
2022-12-04T11:52:52.943Z,113.00
2022-12-04T11:55:49.657Z,120.97
2022-12-04T11:58:52.491Z,111.37
2022-12-04T12:01:49.292Z,115.43
2022-12-04T12:04:53.886Z,120.87
2022-12-04T12:07:49.708Z,114.87
2022-12-04T12:10:44.776Z,118.53
2022-12-04T12:13:40.446Z,112.70
2022-12-04T12:16:35.729Z,113.80
2022-12-04T12:20:10.121Z,114.90
2022-12-04T12:23:12.751Z,112.50
2022-12-04T12:26:06.422Z,115.37
2022-12-04T12:29:06.748Z,116.67
2022-12-04T12:32:17.104Z,122.77
2022-12-04T12:35:15.387Z,112.90
2022-12-04T12:38:04.027Z,110.20
2022-12-04T12:40:54.282Z,126.13
2022-12-04T12:43:42.153Z,107.17
2022-12-04T12:46:34.930Z,109.43
2022-12-04T12:49:26.576Z,113.37
2022-12-04T12:52:18.366Z,118.27
2022-12-04T12:55:15.984Z,113.13
2022-12-04T12:58:08.228Z,115.17
2022-12-04T13:01:00.972Z,115.57
2022-12-04T13:03:55.716Z,110.37
2022-12-04T13:06:44.617Z,121.37
2022-12-04T13:09:34.484Z,118.37
2022-12-04T13:12:22.852Z,113.10
2022-12-04T13:15:15.675Z,111.83
2022-12-04T13:18:03.171Z,113.10
2022-12-04T13:20:55.550Z,132.90
2022-12-04T13:23:53.923Z,119.93
2022-12-04T13:26:49.896Z,133.40
2022-12-04T13:29:50.422Z,131.43
2022-12-04T13:33:02.217Z,128.23
2022-12-04T13:36:04.237Z,126.53
2022-12-04T13:39:03.935Z,115.53
2022-12-04T13:41:58.655Z,130.90
2022-12-04T13:44:44.952Z,128.93
2022-12-04T13:47:33.453Z,130.77
2022-12-04T13:50:29.425Z,126.83
2022-12-04T13:53:31.926Z,133.90
2022-12-04T13:56:27.266Z,120.17
2022-12-04T13:59:25.603Z,122.33
2022-12-04T14:02:25.425Z,118.43
2022-12-04T14:05:13.322Z,125.80
2022-12-04T14:08:07.214Z,127.20
2022-12-04T14:11:00.692Z,113.83
2022-12-04T14:13:50.162Z,119.83
2022-12-04T14:16:41.418Z,117.10
2022-12-04T14:19:34.218Z,122.60
2022-12-04T14:22:30.252Z,126.73
2022-12-04T14:25:33.165Z,119.00
2022-12-04T14:28:29.011Z,110.97
2022-12-04T14:31:33.360Z,132.97
2022-12-04T14:34:27.067Z,123.10
2022-12-04T14:37:31.811Z,115.70
2022-12-04T14:40:23.260Z,116.10
2022-12-04T14:43:17.761Z,117.60
2022-12-04T14:46:13.580Z,106.40
2022-12-04T14:49:07.734Z,130.23
2022-12-04T14:52:02.624Z,119.53
2022-12-04T14:54:56.895Z,129.67
2022-12-04T14:57:51.499Z,126.37
2022-12-04T15:00:38.990Z,114.33
2022-12-04T15:03:27.312Z,103.67
2022-12-04T15:06:20.888Z,119.37
2022-12-04T15:09:36.373Z,125.90
2022-12-04T15:12:37.014Z,123.13
2022-12-04T15:15:25.909Z,121.93
2022-12-04T15:18:14.907Z,122.13
2022-12-04T15:21:03.357Z,135.33
2022-12-04T15:23:50.507Z,123.07
2022-12-04T15:26:39.993Z,123.10
2022-12-04T15:29:29.450Z,122.23
2022-12-04T15:32:18.244Z,121.53
2022-12-04T15:35:09.140Z,122.93
2022-12-04T15:37:55.870Z,123.10
2022-12-04T15:40:51.977Z,122.43
2022-12-04T15:43:42.948Z,116.83
2022-12-04T15:46:33.377Z,119.10
2022-12-04T15:49:25.359Z,119.80
2022-12-04T15:52:16.767Z,131.93
2022-12-04T15:55:07.789Z,121.23
2022-12-04T15:57:57.009Z,116.20
2022-12-04T16:00:45.632Z,128.27
2022-12-04T16:03:35.508Z,120.07
2022-12-04T16:06:23.577Z,119.63
2022-12-04T16:09:21.710Z,125.20
2022-12-04T16:12:18.764Z,115.37
2022-12-04T16:15:05.645Z,105.00
2022-12-04T16:17:54.096Z,116.63
2022-12-04T16:20:41.742Z,116.30
2022-12-04T16:23:28.654Z,109.37
2022-12-04T16:26:16.235Z,128.97
2022-12-04T16:29:02.696Z,129.53
2022-12-04T16:31:49.534Z,121.37
2022-12-04T16:34:37.495Z,124.03
2022-12-04T16:37:24.543Z,136.40
2022-12-04T16:40:12.332Z,117.87
2022-12-04T16:42:58.692Z,115.00
2022-12-04T16:45:48.069Z,131.13
2022-12-04T16:48:36.115Z,109.40
2022-12-04T16:51:26.034Z,119.43
2022-12-04T16:54:14.126Z,113.07
2022-12-04T16:57:00.516Z,124.63
2022-12-04T16:59:46.773Z,114.27
2022-12-04T17:02:33.130Z,115.17
2022-12-04T17:05:21.342Z,121.67
2022-12-04T17:08:09.144Z,112.17
2022-12-04T17:10:55.531Z,115.60
2022-12-04T17:13:41.887Z,119.93
2022-12-04T17:16:29.417Z,105.40
2022-12-04T17:19:15.943Z,107.90
2022-12-04T17:22:02.371Z,110.77
2022-12-04T17:24:55.783Z,106.23
2022-12-04T17:27:43.170Z,116.47
2022-12-04T17:30:35.615Z,110.30
2022-12-04T17:33:22.527Z,125.53
2022-12-04T17:36:10.226Z,112.83
2022-12-04T17:38:57.831Z,112.37
2022-12-04T17:41:45.762Z,115.40
2022-12-04T17:44:32.228Z,114.17
2022-12-04T17:47:18.803Z,110.27
2022-12-04T17:50:05.556Z,113.43
2022-12-04T17:52:51.943Z,112.47
2022-12-04T17:55:38.435Z,111.70
2022-12-04T17:58:26.219Z,106.00
2022-12-04T18:01:16.277Z,107.87
2022-12-04T18:04:04.515Z,112.70
2022-12-04T18:06:52.503Z,115.57
2022-12-04T18:09:39.080Z,103.57
2022-12-04T18:12:25.829Z,114.40
2022-12-04T18:15:13.291Z,116.27
2022-12-04T18:17:59.568Z,118.40
2022-12-04T18:20:45.864Z,99.90
2022-12-04T18:23:32.439Z,108.87
2022-12-04T18:26:21.031Z,104.40
2022-12-04T18:29:07.927Z,108.83
2022-12-04T18:31:55.981Z,97.50
2022-12-04T18:34:42.707Z,110.90
2022-12-04T18:37:29.497Z,112.07
2022-12-04T18:40:16.010Z,115.23
2022-12-04T18:43:02.545Z,109.00
2022-12-04T18:46:01.429Z,104.73
2022-12-04T18:48:54.860Z,109.50
2022-12-04T18:51:47.014Z,122.93
2022-12-04T18:54:35.447Z,113.87
2022-12-04T18:57:22.030Z,112.03
2022-12-04T19:00:09.885Z,107.83
2022-12-04T19:02:55.995Z,110.07
2022-12-04T19:05:50.040Z,103.10
2022-12-04T19:08:40.077Z,103.63
2022-12-04T19:11:29.456Z,121.13
2022-12-04T19:14:23.171Z,124.23
2022-12-04T19:17:11.280Z,127.30
2022-12-04T19:19:58.690Z,122.17
2022-12-04T19:22:49.064Z,107.70
2022-12-04T19:25:35.551Z,117.80
2022-12-04T19:28:27.519Z,122.53
2022-12-04T19:31:18.011Z,128.70
2022-12-04T19:34:06.140Z,120.10
2022-12-04T19:36:55.037Z,131.20
2022-12-04T19:39:42.744Z,112.57
2022-12-04T19:42:31.632Z,131.37
2022-12-04T19:45:18.208Z,115.57
2022-12-04T19:48:05.020Z,141.67
2022-12-04T19:50:51.384Z,125.77
2022-12-04T19:53:41.172Z,118.87
2022-12-04T19:56:31.189Z,120.23
2022-12-04T19:59:19.002Z,115.97
2022-12-04T20:02:05.435Z,127.53
2022-12-04T20:04:52.013Z,122.93
2022-12-04T20:07:38.374Z,133.60
2022-12-04T20:10:25.327Z,135.63
2022-12-04T20:13:14.164Z,131.63
2022-12-04T20:16:02.709Z,132.63
2022-12-04T20:18:53.182Z,114.67
2022-12-04T20:21:41.780Z,135.87
2022-12-04T20:24:28.252Z,139.80
2022-12-04T20:27:14.684Z,153.57
2022-12-04T20:30:02.615Z,139.47
2022-12-04T20:32:48.972Z,131.87
2022-12-04T20:35:36.429Z,143.97
2022-12-04T20:38:23.023Z,138.67
2022-12-04T20:41:13.356Z,136.20
2022-12-04T20:44:01.325Z,136.70
2022-12-04T20:46:49.685Z,138.93
2022-12-04T20:49:35.856Z,140.83
2022-12-04T20:52:22.302Z,139.67
2022-12-04T20:55:10.220Z,153.83
2022-12-04T20:57:57.311Z,148.90
2022-12-04T21:00:43.825Z,192.90
2022-12-04T21:03:31.536Z,164.77
2022-12-04T21:06:20.009Z,161.13
2022-12-04T21:09:08.060Z,157.87
2022-12-04T21:11:56.384Z,177.17
2022-12-04T21:15:00.792Z,152.57
2022-12-04T21:17:47.216Z,146.03
2022-12-04T21:20:34.864Z,182.13
2022-12-04T21:23:21.239Z,154.40
2022-12-04T21:26:07.910Z,150.33
2022-12-04T21:28:54.246Z,164.80
2022-12-04T21:31:40.717Z,161.20
2022-12-04T21:34:27.256Z,161.60
2022-12-04T21:37:14.838Z,142.03
2022-12-04T21:40:01.567Z,156.37
2022-12-04T21:42:48.115Z,198.00
2022-12-04T21:45:34.407Z,161.70
2022-12-04T21:48:20.812Z,200.47
2022-12-04T21:51:16.803Z,172.43
2022-12-04T21:54:14.506Z,149.93
2022-12-04T21:57:00.890Z,179.80
2022-12-04T21:59:48.184Z,145.40
2022-12-04T22:02:36.246Z,187.97
2022-12-04T22:05:22.804Z,211.87
2022-12-04T22:08:10.417Z,162.23
2022-12-04T22:10:58.054Z,222.37
2022-12-04T22:13:44.843Z,189.83
2022-12-04T22:16:34.627Z,236.83
2022-12-04T22:19:23.840Z,193.83
2022-12-04T22:22:10.179Z,189.53
2022-12-04T22:24:56.427Z,192.63
2022-12-04T22:27:44.293Z,187.77
2022-12-04T22:30:31.131Z,181.13
2022-12-04T22:33:17.464Z,202.17
2022-12-04T22:36:05.400Z,191.37
2022-12-04T22:39:08.905Z,206.27
2022-12-04T22:41:56.422Z,224.27
2022-12-04T22:44:44.290Z,228.20
2022-12-04T22:47:30.423Z,269.50
2022-12-04T22:50:16.695Z,210.70
2022-12-04T22:53:02.947Z,157.50
2022-12-04T22:55:49.276Z,195.93
2022-12-04T22:58:36.163Z,230.93
2022-12-04T23:01:25.912Z,223.93
2022-12-04T23:04:12.422Z,206.70
2022-12-04T23:06:58.834Z,233.13
2022-12-04T23:09:45.337Z,234.00
2022-12-04T23:12:31.602Z,208.33
2022-12-04T23:15:18.173Z,230.10
2022-12-04T23:18:06.704Z,227.23
2022-12-04T23:20:53.254Z,191.40
2022-12-04T23:23:41.523Z,198.73
2022-12-04T23:26:31.535Z,218.63
2022-12-04T23:29:50.950Z,192.10
2022-12-04T23:32:24.376Z,182.87
2022-12-04T23:35:12.278Z,202.57
2022-12-04T23:37:59.094Z,159.83
2022-12-04T23:40:45.412Z,227.10
2022-12-04T23:43:31.954Z,176.27
2022-12-04T23:46:20.445Z,186.67
2022-12-04T23:49:06.678Z,196.63
2022-12-04T23:51:54.565Z,194.03
2022-12-04T23:54:40.772Z,188.93
2022-12-04T23:57:30.015Z,210.90
